sensor_id;sensor_type;location;lat;lon;timestamp;temperature;humidity
4647;DHT22;2336;47.822;7.564;2022-10-31T00:01:23;11.80;99.90
4647;DHT22;2336;47.822;7.564;2022-10-31T00:03:50;11.80;99.90
4647;DHT22;2336;47.822;7.564;2022-10-31T00:06:18;11.80;99.90
4647;DHT22;2336;47.822;7.564;2022-10-31T00:08:45;11.80;99.90
4647;DHT22;2336;47.822;7.564;2022-10-31T00:11:12;11.80;99.90
4647;DHT22;2336;47.822;7.564;2022-10-31T00:13:39;11.80;99.90
4647;DHT22;2336;47.822;7.564;2022-10-31T00:16:13;11.80;99.90
4647;DHT22;2336;47.822;7.564;2022-10-31T00:18:40;11.80;99.90
4647;DHT22;2336;47.822;7.564;2022-10-31T00:21:07;11.80;99.90
4647;DHT22;2336;47.822;7.564;2022-10-31T00:23:35;11.70;99.90
4647;DHT22;2336;47.822;7.564;2022-10-31T00:26:03;11.70;99.90
4647;DHT22;2336;47.822;7.564;2022-10-31T00:28:30;11.70;99.90
4647;DHT22;2336;47.822;7.564;2022-10-31T00:30:59;11.70;99.90
4647;DHT22;2336;47.822;7.564;2022-10-31T00:33:26;11.70;99.90
4647;DHT22;2336;47.822;7.564;2022-10-31T00:35:53;11.70;99.90
4647;DHT22;2336;47.822;7.564;2022-10-31T00:38:20;11.70;99.90
4647;DHT22;2336;47.822;7.564;2022-10-31T00:40:48;11.80;99.90
4647;DHT22;2336;47.822;7.564;2022-10-31T00:43:15;11.80;99.90
4647;DHT22;2336;47.822;7.564;2022-10-31T00:45:41;11.70;99.90
4647;DHT22;2336;47.822;7.564;2022-10-31T00:48:09;11.70;99.90
4647;DHT22;2336;47.822;7.564;2022-10-31T00:50:36;11.70;99.90
4647;DHT22;2336;47.822;7.564;2022-10-31T00:53:03;11.70;99.90
4647;DHT22;2336;47.822;7.564;2022-10-31T00:55:31;11.70;99.90
4647;DHT22;2336;47.822;7.564;2022-10-31T00:57:59;11.60;99.90
4647;DHT22;2336;47.822;7.564;2022-10-31T01:00:26;11.60;99.90
4647;DHT22;2336;47.822;7.564;2022-10-31T01:02:53;11.50;99.90
4647;DHT22;2336;47.822;7.564;2022-10-31T01:05:20;11.50;99.90
4647;DHT22;2336;47.822;7.564;2022-10-31T01:07:47;11.50;99.90
4647;DHT22;2336;47.822;7.564;2022-10-31T01:10:14;11.50;99.90
4647;DHT22;2336;47.822;7.564;2022-10-31T01:12:42;11.50;99.90
4647;DHT22;2336;47.822;7.564;2022-10-31T01:15:13;11.50;99.90
4647;DHT22;2336;47.822;7.564;2022-10-31T01:17:40;11.50;99.90
4647;DHT22;2336;47.822;7.564;2022-10-31T01:20:09;11.40;99.90
4647;DHT22;2336;47.822;7.564;2022-10-31T01:22:36;11.40;99.90
4647;DHT22;2336;47.822;7.564;2022-10-31T01:25:04;11.30;99.90
4647;DHT22;2336;47.822;7.564;2022-10-31T01:27:32;11.30;99.90
4647;DHT22;2336;47.822;7.564;2022-10-31T01:29:58;11.30;99.90
4647;DHT22;2336;47.822;7.564;2022-10-31T01:32:27;11.30;99.90
4647;DHT22;2336;47.822;7.564;2022-10-31T01:34:54;11.30;99.90
4647;DHT22;2336;47.822;7.564;2022-10-31T01:37:21;11.30;99.90
4647;DHT22;2336;47.822;7.564;2022-10-31T01:39:48;11.30;99.90
4647;DHT22;2336;47.822;7.564;2022-10-31T01:42:18;11.30;99.90
4647;DHT22;2336;47.822;7.564;2022-10-31T01:44:55;11.30;99.90
4647;DHT22;2336;47.822;7.564;2022-10-31T01:47:40;11.30;99.90
4647;DHT22;2336;47.822;7.564;2022-10-31T01:50:15;11.20;99.90
4647;DHT22;2336;47.822;7.564;2022-10-31T01:52:46;11.20;99.90
4647;DHT22;2336;47.822;7.564;2022-10-31T01:55:16;11.20;99.90
4647;DHT22;2336;47.822;7.564;2022-10-31T01:57:49;11.20;99.90
4647;DHT22;2336;47.822;7.564;2022-10-31T02:00:17;11.10;99.90
4647;DHT22;2336;47.822;7.564;2022-10-31T02:02:47;11.20;99.90
4647;DHT22;2336;47.822;7.564;2022-10-31T02:05:18;11.20;99.90
4647;DHT22;2336;47.822;7.564;2022-10-31T02:07:50;11.20;99.90
4647;DHT22;2336;47.822;7.564;2022-10-31T02:10:19;11.10;99.90
4647;DHT22;2336;47.822;7.564;2022-10-31T02:12:47;11.10;99.90
4647;DHT22;2336;47.822;7.564;2022-10-31T02:15:15;11.10;99.90
4647;DHT22;2336;47.822;7.564;2022-10-31T02:17:42;11.10;99.90
4647;DHT22;2336;47.822;7.564;2022-10-31T02:20:14;11.10;99.90
4647;DHT22;2336;47.822;7.564;2022-10-31T02:23:06;11.00;99.90
4647;DHT22;2336;47.822;7.564;2022-10-31T02:25:53;11.00;99.90
4647;DHT22;2336;47.822;7.564;2022-10-31T02:28:49;10.90;99.90
4647;DHT22;2336;47.822;7.564;2022-10-31T02:31:28;10.90;99.90
4647;DHT22;2336;47.822;7.564;2022-10-31T02:34:02;10.90;99.90
4647;DHT22;2336;47.822;7.564;2022-10-31T02:36:40;10.90;99.90
4647;DHT22;2336;47.822;7.564;2022-10-31T02:39:12;10.90;99.90
4647;DHT22;2336;47.822;7.564;2022-10-31T02:41:47;10.90;99.90
4647;DHT22;2336;47.822;7.564;2022-10-31T02:44:20;10.90;99.90
4647;DHT22;2336;47.822;7.564;2022-10-31T02:46:53;10.80;99.90
4647;DHT22;2336;47.822;7.564;2022-10-31T02:49:24;10.80;99.90
4647;DHT22;2336;47.822;7.564;2022-10-31T02:51:53;10.80;99.90
4647;DHT22;2336;47.822;7.564;2022-10-31T02:54:23;10.80;99.90
4647;DHT22;2336;47.822;7.564;2022-10-31T02:56:53;10.70;99.90
4647;DHT22;2336;47.822;7.564;2022-10-31T02:59:21;10.80;99.90
4647;DHT22;2336;47.822;7.564;2022-10-31T03:05:11;10.80;99.90
4647;DHT22;2336;47.822;7.564;2022-10-31T03:07:46;10.80;99.90
4647;DHT22;2336;47.822;7.564;2022-10-31T03:10:23;10.80;99.90
4647;DHT22;2336;47.822;7.564;2022-10-31T03:12:58;10.70;99.90
4647;DHT22;2336;47.822;7.564;2022-10-31T03:15:30;10.70;99.90
4647;DHT22;2336;47.822;7.564;2022-10-31T03:18:02;10.70;99.90
4647;DHT22;2336;47.822;7.564;2022-10-31T03:20:34;10.80;99.90
4647;DHT22;2336;47.822;7.564;2022-10-31T03:23:06;10.90;99.90
4647;DHT22;2336;47.822;7.564;2022-10-31T03:25:35;10.90;99.90
4647;DHT22;2336;47.822;7.564;2022-10-31T03:28:04;10.90;99.90
4647;DHT22;2336;47.822;7.564;2022-10-31T03:30:34;10.90;99.90
4647;DHT22;2336;47.822;7.564;2022-10-31T03:33:06;10.90;99.90
4647;DHT22;2336;47.822;7.564;2022-10-31T03:35:36;10.80;99.90
4647;DHT22;2336;47.822;7.564;2022-10-31T03:38:05;10.80;99.90
4647;DHT22;2336;47.822;7.564;2022-10-31T03:40:35;10.80;99.90
4647;DHT22;2336;47.822;7.564;2022-10-31T03:43:06;10.80;99.90
4647;DHT22;2336;47.822;7.564;2022-10-31T03:45:37;10.80;99.90
4647;DHT22;2336;47.822;7.564;2022-10-31T03:48:07;10.80;99.90
4647;DHT22;2336;47.822;7.564;2022-10-31T03:50:39;10.80;99.90
4647;DHT22;2336;47.822;7.564;2022-10-31T03:53:11;10.80;99.90
4647;DHT22;2336;47.822;7.564;2022-10-31T03:55:42;10.80;99.90
4647;DHT22;2336;47.822;7.564;2022-10-31T03:58:16;10.80;99.90
4647;DHT22;2336;47.822;7.564;2022-10-31T04:00:46;10.80;99.90
4647;DHT22;2336;47.822;7.564;2022-10-31T04:03:18;10.80;99.90
4647;DHT22;2336;47.822;7.564;2022-10-31T04:05:49;10.70;99.90
4647;DHT22;2336;47.822;7.564;2022-10-31T04:08:20;10.70;99.90
4647;DHT22;2336;47.822;7.564;2022-10-31T04:10:50;10.70;99.90
4647;DHT22;2336;47.822;7.564;2022-10-31T04:13:22;10.70;99.90
4647;DHT22;2336;47.822;7.564;2022-10-31T04:15:51;10.70;99.90
4647;DHT22;2336;47.822;7.564;2022-10-31T04:18:21;10.70;99.90
4647;DHT22;2336;47.822;7.564;2022-10-31T04:20:48;10.70;99.90
4647;DHT22;2336;47.822;7.564;2022-10-31T04:23:18;10.70;99.90
4647;DHT22;2336;47.822;7.564;2022-10-31T04:25:45;10.60;99.90
4647;DHT22;2336;47.822;7.564;2022-10-31T04:28:12;10.60;99.90
4647;DHT22;2336;47.822;7.564;2022-10-31T04:30:39;10.60;99.90
4647;DHT22;2336;47.822;7.564;2022-10-31T04:33:06;10.60;99.90
4647;DHT22;2336;47.822;7.564;2022-10-31T04:35:34;10.60;99.90
4647;DHT22;2336;47.822;7.564;2022-10-31T04:38:01;10.60;99.90
4647;DHT22;2336;47.822;7.564;2022-10-31T04:40:28;10.60;99.90
4647;DHT22;2336;47.822;7.564;2022-10-31T04:42:54;10.60;99.90
4647;DHT22;2336;47.822;7.564;2022-10-31T04:45:21;10.60;99.90
4647;DHT22;2336;47.822;7.564;2022-10-31T04:47:48;10.60;99.90
4647;DHT22;2336;47.822;7.564;2022-10-31T04:50:15;10.50;99.90
4647;DHT22;2336;47.822;7.564;2022-10-31T04:52:44;10.50;99.90
4647;DHT22;2336;47.822;7.564;2022-10-31T04:55:12;10.60;99.90
4647;DHT22;2336;47.822;7.564;2022-10-31T04:57:43;10.60;99.90
4647;DHT22;2336;47.822;7.564;2022-10-31T05:00:11;10.50;99.90
4647;DHT22;2336;47.822;7.564;2022-10-31T05:02:45;10.50;99.90
4647;DHT22;2336;47.822;7.564;2022-10-31T05:05:12;10.50;99.90
4647;DHT22;2336;47.822;7.564;2022-10-31T05:07:40;10.60;99.90
4647;DHT22;2336;47.822;7.564;2022-10-31T05:10:09;10.50;99.90
4647;DHT22;2336;47.822;7.564;2022-10-31T05:12:37;10.50;99.90
4647;DHT22;2336;47.822;7.564;2022-10-31T05:15:05;10.50;99.90
4647;DHT22;2336;47.822;7.564;2022-10-31T05:17:32;10.50;99.90
4647;DHT22;2336;47.822;7.564;2022-10-31T05:19:58;10.50;99.90
4647;DHT22;2336;47.822;7.564;2022-10-31T05:22:25;10.50;99.90
4647;DHT22;2336;47.822;7.564;2022-10-31T05:24:52;10.50;99.90
4647;DHT22;2336;47.822;7.564;2022-10-31T05:27:20;10.50;99.90
4647;DHT22;2336;47.822;7.564;2022-10-31T05:29:47;10.60;99.90
4647;DHT22;2336;47.822;7.564;2022-10-31T05:32:14;10.60;99.90
4647;DHT22;2336;47.822;7.564;2022-10-31T05:34:41;10.60;99.90
4647;DHT22;2336;47.822;7.564;2022-10-31T05:37:08;10.60;99.90
4647;DHT22;2336;47.822;7.564;2022-10-31T05:39:35;10.50;99.90
4647;DHT22;2336;47.822;7.564;2022-10-31T05:42:01;10.50;99.90
4647;DHT22;2336;47.822;7.564;2022-10-31T05:44:30;10.50;99.90
4647;DHT22;2336;47.822;7.564;2022-10-31T05:46:56;10.60;99.90
4647;DHT22;2336;47.822;7.564;2022-10-31T05:49:23;10.50;99.90
4647;DHT22;2336;47.822;7.564;2022-10-31T05:51:50;10.50;99.90
4647;DHT22;2336;47.822;7.564;2022-10-31T05:54:17;10.50;99.90
4647;DHT22;2336;47.822;7.564;2022-10-31T05:56:44;10.60;99.90
4647;DHT22;2336;47.822;7.564;2022-10-31T05:59:10;10.50;99.90
4647;DHT22;2336;47.822;7.564;2022-10-31T06:01:38;10.50;99.90
4647;DHT22;2336;47.822;7.564;2022-10-31T06:04:05;10.40;99.90
4647;DHT22;2336;47.822;7.564;2022-10-31T06:06:32;10.50;99.90
4647;DHT22;2336;47.822;7.564;2022-10-31T06:08:59;10.50;99.90
4647;DHT22;2336;47.822;7.564;2022-10-31T06:11:26;10.40;99.90
4647;DHT22;2336;47.822;7.564;2022-10-31T06:13:52;10.40;99.90
4647;DHT22;2336;47.822;7.564;2022-10-31T06:16:19;10.50;99.90
4647;DHT22;2336;47.822;7.564;2022-10-31T06:18:47;10.40;99.90
4647;DHT22;2336;47.822;7.564;2022-10-31T06:21:14;10.40;99.90
4647;DHT22;2336;47.822;7.564;2022-10-31T06:23:41;10.50;99.90
4647;DHT22;2336;47.822;7.564;2022-10-31T06:26:08;10.50;99.90
4647;DHT22;2336;47.822;7.564;2022-10-31T06:28:35;10.50;99.90
4647;DHT22;2336;47.822;7.564;2022-10-31T06:31:01;10.60;99.90
4647;DHT22;2336;47.822;7.564;2022-10-31T06:33:28;10.60;99.90
4647;DHT22;2336;47.822;7.564;2022-10-31T06:35:57;10.60;99.90
4647;DHT22;2336;47.822;7.564;2022-10-31T06:38:25;10.60;99.90
4647;DHT22;2336;47.822;7.564;2022-10-31T06:40:52;10.60;99.90
4647;DHT22;2336;47.822;7.564;2022-10-31T06:43:20;10.60;99.90
4647;DHT22;2336;47.822;7.564;2022-10-31T06:45:46;10.70;99.90
4647;DHT22;2336;47.822;7.564;2022-10-31T06:48:13;10.70;99.90
4647;DHT22;2336;47.822;7.564;2022-10-31T06:50:40;10.80;99.90
4647;DHT22;2336;47.822;7.564;2022-10-31T06:53:09;10.80;99.90
4647;DHT22;2336;47.822;7.564;2022-10-31T06:55:35;10.90;99.90
4647;DHT22;2336;47.822;7.564;2022-10-31T06:58:02;11.00;99.90
4647;DHT22;2336;47.822;7.564;2022-10-31T07:00:30;11.00;99.90
4647;DHT22;2336;47.822;7.564;2022-10-31T07:03:00;11.10;99.90
4647;DHT22;2336;47.822;7.564;2022-10-31T07:05:28;11.30;99.90
4647;DHT22;2336;47.822;7.564;2022-10-31T07:07:56;11.40;99.90
4647;DHT22;2336;47.822;7.564;2022-10-31T07:10:25;11.50;99.90
4647;DHT22;2336;47.822;7.564;2022-10-31T07:12:54;11.50;99.90
4647;DHT22;2336;47.822;7.564;2022-10-31T07:15:21;11.60;99.90
4647;DHT22;2336;47.822;7.564;2022-10-31T07:17:48;11.70;99.90
4647;DHT22;2336;47.822;7.564;2022-10-31T07:20:15;11.80;99.90
4647;DHT22;2336;47.822;7.564;2022-10-31T07:22:42;11.90;99.90
4647;DHT22;2336;47.822;7.564;2022-10-31T07:25:09;12.00;99.90
4647;DHT22;2336;47.822;7.564;2022-10-31T07:27:38;12.00;99.90
4647;DHT22;2336;47.822;7.564;2022-10-31T07:30:06;12.10;99.90
4647;DHT22;2336;47.822;7.564;2022-10-31T07:32:39;12.20;99.90
4647;DHT22;2336;47.822;7.564;2022-10-31T07:35:08;12.30;99.90
4647;DHT22;2336;47.822;7.564;2022-10-31T07:37:35;12.40;99.90
4647;DHT22;2336;47.822;7.564;2022-10-31T07:40:02;12.40;99.90
4647;DHT22;2336;47.822;7.564;2022-10-31T07:42:29;12.50;99.90
4647;DHT22;2336;47.822;7.564;2022-10-31T07:44:57;12.50;99.90
4647;DHT22;2336;47.822;7.564;2022-10-31T07:47:24;12.60;99.90
4647;DHT22;2336;47.822;7.564;2022-10-31T07:49:51;12.60;99.90
4647;DHT22;2336;47.822;7.564;2022-10-31T07:52:17;12.70;99.90
4647;DHT22;2336;47.822;7.564;2022-10-31T07:54:44;12.80;99.90
4647;DHT22;2336;47.822;7.564;2022-10-31T07:57:11;12.80;99.90
4647;DHT22;2336;47.822;7.564;2022-10-31T07:59:38;12.90;99.90
4647;DHT22;2336;47.822;7.564;2022-10-31T08:02:07;12.90;99.90
4647;DHT22;2336;47.822;7.564;2022-10-31T08:04:34;13.00;99.90
4647;DHT22;2336;47.822;7.564;2022-10-31T08:07:01;13.00;99.90
4647;DHT22;2336;47.822;7.564;2022-10-31T08:09:28;13.00;99.90
4647;DHT22;2336;47.822;7.564;2022-10-31T08:11:55;13.10;99.90
4647;DHT22;2336;47.822;7.564;2022-10-31T08:14:21;13.10;99.90
4647;DHT22;2336;47.822;7.564;2022-10-31T08:16:48;13.20;99.90
4647;DHT22;2336;47.822;7.564;2022-10-31T08:19:16;13.20;99.90
4647;DHT22;2336;47.822;7.564;2022-10-31T08:21:43;13.30;99.90
4647;DHT22;2336;47.822;7.564;2022-10-31T08:24:10;13.30;99.90
4647;DHT22;2336;47.822;7.564;2022-10-31T08:26:37;13.30;99.90
4647;DHT22;2336;47.822;7.564;2022-10-31T08:29:04;13.40;99.90
4647;DHT22;2336;47.822;7.564;2022-10-31T08:31:31;13.50;99.90
4647;DHT22;2336;47.822;7.564;2022-10-31T08:33:58;13.60;99.90
4647;DHT22;2336;47.822;7.564;2022-10-31T08:36:27;13.70;99.90
4647;DHT22;2336;47.822;7.564;2022-10-31T08:38:54;13.80;99.90
4647;DHT22;2336;47.822;7.564;2022-10-31T08:41:21;13.80;99.90
4647;DHT22;2336;47.822;7.564;2022-10-31T08:43:48;13.90;99.90
4647;DHT22;2336;47.822;7.564;2022-10-31T08:46:30;14.00;99.90
4647;DHT22;2336;47.822;7.564;2022-10-31T08:48:57;14.10;99.90
4647;DHT22;2336;47.822;7.564;2022-10-31T08:51:25;14.20;99.90
4647;DHT22;2336;47.822;7.564;2022-10-31T08:53:52;14.20;99.90
4647;DHT22;2336;47.822;7.564;2022-10-31T08:56:19;14.10;99.90
4647;DHT22;2336;47.822;7.564;2022-10-31T08:58:45;14.20;99.90
4647;DHT22;2336;47.822;7.564;2022-10-31T09:01:12;14.20;99.90
4647;DHT22;2336;47.822;7.564;2022-10-31T09:03:39;14.30;99.90
4647;DHT22;2336;47.822;7.564;2022-10-31T09:06:06;14.30;99.90
4647;DHT22;2336;47.822;7.564;2022-10-31T09:08:35;14.30;99.90
4647;DHT22;2336;47.822;7.564;2022-10-31T09:11:03;14.40;99.90
4647;DHT22;2336;47.822;7.564;2022-10-31T09:13:30;14.40;99.90
4647;DHT22;2336;47.822;7.564;2022-10-31T09:15:57;14.50;99.90
4647;DHT22;2336;47.822;7.564;2022-10-31T09:18:25;14.60;99.90
4647;DHT22;2336;47.822;7.564;2022-10-31T09:20:53;14.60;99.90
4647;DHT22;2336;47.822;7.564;2022-10-31T09:23:22;14.70;99.90
4647;DHT22;2336;47.822;7.564;2022-10-31T09:25:52;14.70;99.90
4647;DHT22;2336;47.822;7.564;2022-10-31T09:28:20;14.80;99.90
4647;DHT22;2336;47.822;7.564;2022-10-31T09:30:49;14.90;99.90
4647;DHT22;2336;47.822;7.564;2022-10-31T09:33:16;14.90;99.90
4647;DHT22;2336;47.822;7.564;2022-10-31T09:35:43;15.00;99.90
4647;DHT22;2336;47.822;7.564;2022-10-31T09:38:11;15.10;99.90
4647;DHT22;2336;47.822;7.564;2022-10-31T09:40:41;15.20;99.90
4647;DHT22;2336;47.822;7.564;2022-10-31T09:43:14;15.30;99.90
4647;DHT22;2336;47.822;7.564;2022-10-31T09:45:52;15.30;99.90
4647;DHT22;2336;47.822;7.564;2022-10-31T09:48:36;15.40;99.90
4647;DHT22;2336;47.822;7.564;2022-10-31T09:51:07;15.50;99.90
4647;DHT22;2336;47.822;7.564;2022-10-31T09:53:38;15.50;99.90
4647;DHT22;2336;47.822;7.564;2022-10-31T09:56:09;15.40;99.90
4647;DHT22;2336;47.822;7.564;2022-10-31T09:58:42;15.40;99.90
4647;DHT22;2336;47.822;7.564;2022-10-31T10:01:21;15.50;99.90
4647;DHT22;2336;47.822;7.564;2022-10-31T10:03:52;15.60;99.90
4647;DHT22;2336;47.822;7.564;2022-10-31T10:06:24;15.60;99.90
4647;DHT22;2336;47.822;7.564;2022-10-31T10:08:52;15.60;99.90
4647;DHT22;2336;47.822;7.564;2022-10-31T10:11:40;15.70;99.90
4647;DHT22;2336;47.822;7.564;2022-10-31T10:14:25;15.70;99.90
4647;DHT22;2336;47.822;7.564;2022-10-31T10:17:04;15.70;99.90
4647;DHT22;2336;47.822;7.564;2022-10-31T10:19:48;15.70;99.90
4647;DHT22;2336;47.822;7.564;2022-10-31T10:22:21;15.70;99.90
4647;DHT22;2336;47.822;7.564;2022-10-31T10:25:04;15.70;99.90
4647;DHT22;2336;47.822;7.564;2022-10-31T10:27:43;15.70;99.90
4647;DHT22;2336;47.822;7.564;2022-10-31T10:30:16;15.70;99.90
4647;DHT22;2336;47.822;7.564;2022-10-31T10:32:46;15.80;99.90
4647;DHT22;2336;47.822;7.564;2022-10-31T10:35:21;15.80;99.90
4647;DHT22;2336;47.822;7.564;2022-10-31T10:37:51;15.80;99.90
4647;DHT22;2336;47.822;7.564;2022-10-31T10:40:21;15.90;99.90
4647;DHT22;2336;47.822;7.564;2022-10-31T10:42:58;15.90;99.90
4647;DHT22;2336;47.822;7.564;2022-10-31T10:46:05;16.10;99.90
4647;DHT22;2336;47.822;7.564;2022-10-31T10:48:57;16.20;99.90
4647;DHT22;2336;47.822;7.564;2022-10-31T10:51:28;16.40;99.90
4647;DHT22;2336;47.822;7.564;2022-10-31T10:54:13;16.50;99.90
4647;DHT22;2336;47.822;7.564;2022-10-31T10:56:49;16.60;99.90
4647;DHT22;2336;47.822;7.564;2022-10-31T10:59:20;16.80;99.90
4647;DHT22;2336;47.822;7.564;2022-10-31T11:01:51;17.00;99.90
4647;DHT22;2336;47.822;7.564;2022-10-31T11:04:28;17.20;99.90
4647;DHT22;2336;47.822;7.564;2022-10-31T11:06:58;17.40;99.90
4647;DHT22;2336;47.822;7.564;2022-10-31T11:09:24;17.50;99.90
4647;DHT22;2336;47.822;7.564;2022-10-31T11:11:51;17.50;99.90
4647;DHT22;2336;47.822;7.564;2022-10-31T11:14:18;17.50;99.90
4647;DHT22;2336;47.822;7.564;2022-10-31T11:16:49;17.50;99.90
4647;DHT22;2336;47.822;7.564;2022-10-31T11:19:21;17.50;99.90
4647;DHT22;2336;47.822;7.564;2022-10-31T11:21:49;17.20;99.90
4647;DHT22;2336;47.822;7.564;2022-10-31T11:24:18;17.20;99.90
4647;DHT22;2336;47.822;7.564;2022-10-31T11:26:46;17.00;99.90
4647;DHT22;2336;47.822;7.564;2022-10-31T11:29:15;17.10;99.90
4647;DHT22;2336;47.822;7.564;2022-10-31T11:31:44;17.50;99.90
4647;DHT22;2336;47.822;7.564;2022-10-31T11:34:27;17.70;99.90
4647;DHT22;2336;47.822;7.564;2022-10-31T11:36:58;17.90;99.90
4647;DHT22;2336;47.822;7.564;2022-10-31T11:39:27;18.40;99.90
4647;DHT22;2336;47.822;7.564;2022-10-31T11:41:55;18.90;99.90
4647;DHT22;2336;47.822;7.564;2022-10-31T11:44:27;19.50;99.90
4647;DHT22;2336;47.822;7.564;2022-10-31T11:46:57;20.10;99.90
4647;DHT22;2336;47.822;7.564;2022-10-31T11:49:30;20.70;99.90
4647;DHT22;2336;47.822;7.564;2022-10-31T11:51:59;20.50;99.90
4647;DHT22;2336;47.822;7.564;2022-10-31T11:54:30;20.30;99.90
4647;DHT22;2336;47.822;7.564;2022-10-31T11:56:59;20.30;99.90
4647;DHT22;2336;47.822;7.564;2022-10-31T11:59:27;20.60;99.90
4647;DHT22;2336;47.822;7.564;2022-10-31T12:01:56;20.40;99.90
4647;DHT22;2336;47.822;7.564;2022-10-31T12:04:34;21.10;99.90
4647;DHT22;2336;47.822;7.564;2022-10-31T12:07:03;21.10;99.90
4647;DHT22;2336;47.822;7.564;2022-10-31T12:09:33;20.90;99.90
4647;DHT22;2336;47.822;7.564;2022-10-31T12:12:27;21.20;99.90
4647;DHT22;2336;47.822;7.564;2022-10-31T12:15:09;21.10;99.90
4647;DHT22;2336;47.822;7.564;2022-10-31T12:17:43;20.80;99.90
4647;DHT22;2336;47.822;7.564;2022-10-31T12:20:21;20.60;99.90
4647;DHT22;2336;47.822;7.564;2022-10-31T12:22:58;20.30;99.90
4647;DHT22;2336;47.822;7.564;2022-10-31T12:25:37;20.00;99.90
4647;DHT22;2336;47.822;7.564;2022-10-31T12:28:29;19.80;99.90
4647;DHT22;2336;47.822;7.564;2022-10-31T12:31:16;19.50;99.90
4647;DHT22;2336;47.822;7.564;2022-10-31T12:33:55;19.30;99.90
4647;DHT22;2336;47.822;7.564;2022-10-31T12:36:36;19.30;99.90
4647;DHT22;2336;47.822;7.564;2022-10-31T12:39:16;19.10;99.90
4647;DHT22;2336;47.822;7.564;2022-10-31T12:41:50;19.10;99.90
4647;DHT22;2336;47.822;7.564;2022-10-31T12:44:44;19.10;99.90
4647;DHT22;2336;47.822;7.564;2022-10-31T12:50:21;19.00;99.90
4647;DHT22;2336;47.822;7.564;2022-10-31T12:52:59;19.10;99.90
4647;DHT22;2336;47.822;7.564;2022-10-31T12:55:40;19.20;99.90
4647;DHT22;2336;47.822;7.564;2022-10-31T12:58:13;19.40;99.90
4647;DHT22;2336;47.822;7.564;2022-10-31T13:00:44;19.40;99.90
4647;DHT22;2336;47.822;7.564;2022-10-31T13:03:22;19.30;99.90
4647;DHT22;2336;47.822;7.564;2022-10-31T13:05:53;19.40;99.90
4647;DHT22;2336;47.822;7.564;2022-10-31T13:08:27;19.50;99.90
4647;DHT22;2336;47.822;7.564;2022-10-31T13:11:03;19.60;99.90
4647;DHT22;2336;47.822;7.564;2022-10-31T13:13:35;19.50;99.90
4647;DHT22;2336;47.822;7.564;2022-10-31T13:16:07;19.50;99.90
4647;DHT22;2336;47.822;7.564;2022-10-31T13:18:40;19.50;99.90
4647;DHT22;2336;47.822;7.564;2022-10-31T13:21:14;19.40;99.90
4647;DHT22;2336;47.822;7.564;2022-10-31T13:23:45;19.50;99.90
4647;DHT22;2336;47.822;7.564;2022-10-31T13:26:18;19.50;99.90
4647;DHT22;2336;47.822;7.564;2022-10-31T13:28:50;19.60;99.90
4647;DHT22;2336;47.822;7.564;2022-10-31T13:31:19;19.50;99.90
4647;DHT22;2336;47.822;7.564;2022-10-31T13:33:49;19.60;99.90
4647;DHT22;2336;47.822;7.564;2022-10-31T13:36:24;19.60;99.90
4647;DHT22;2336;47.822;7.564;2022-10-31T13:38:56;19.70;99.90
4647;DHT22;2336;47.822;7.564;2022-10-31T13:41:36;19.80;99.90
4647;DHT22;2336;47.822;7.564;2022-10-31T13:44:17;19.60;99.90
4647;DHT22;2336;47.822;7.564;2022-10-31T13:46:45;19.60;99.90
4647;DHT22;2336;47.822;7.564;2022-10-31T13:49:35;19.40;99.90
4647;DHT22;2336;47.822;7.564;2022-10-31T13:52:13;19.30;99.90
4647;DHT22;2336;47.822;7.564;2022-10-31T13:54:44;19.50;99.90
4647;DHT22;2336;47.822;7.564;2022-10-31T13:57:18;19.50;99.90
4647;DHT22;2336;47.822;7.564;2022-10-31T13:59:51;19.60;99.90
4647;DHT22;2336;47.822;7.564;2022-10-31T14:02:25;19.50;99.90
4647;DHT22;2336;47.822;7.564;2022-10-31T14:04:56;19.30;99.90
4647;DHT22;2336;47.822;7.564;2022-10-31T14:07:24;19.30;99.90
4647;DHT22;2336;47.822;7.564;2022-10-31T14:09:59;19.10;99.90
4647;DHT22;2336;47.822;7.564;2022-10-31T14:12:29;19.00;99.90
4647;DHT22;2336;47.822;7.564;2022-10-31T14:15:00;19.00;99.90
4647;DHT22;2336;47.822;7.564;2022-10-31T14:17:33;18.90;99.90
4647;DHT22;2336;47.822;7.564;2022-10-31T14:20:22;18.90;99.90
4647;DHT22;2336;47.822;7.564;2022-10-31T14:22:50;18.70;99.90
4647;DHT22;2336;47.822;7.564;2022-10-31T14:25:30;18.70;99.90
4647;DHT22;2336;47.822;7.564;2022-10-31T14:27:59;18.60;99.90
4647;DHT22;2336;47.822;7.564;2022-10-31T14:30:28;18.50;99.90
4647;DHT22;2336;47.822;7.564;2022-10-31T14:32:59;18.50;99.90
4647;DHT22;2336;47.822;7.564;2022-10-31T14:35:35;18.40;99.90
4647;DHT22;2336;47.822;7.564;2022-10-31T14:38:20;18.50;99.90
4647;DHT22;2336;47.822;7.564;2022-10-31T14:41:08;18.60;99.90
4647;DHT22;2336;47.822;7.564;2022-10-31T14:44:04;18.50;99.90
4647;DHT22;2336;47.822;7.564;2022-10-31T14:46:42;18.50;99.90
4647;DHT22;2336;47.822;7.564;2022-10-31T14:49:21;18.40;99.90
4647;DHT22;2336;47.822;7.564;2022-10-31T14:51:53;18.30;99.90
4647;DHT22;2336;47.822;7.564;2022-10-31T14:54:27;18.30;99.90
4647;DHT22;2336;47.822;7.564;2022-10-31T14:56:59;18.20;99.90
4647;DHT22;2336;47.822;7.564;2022-10-31T14:59:30;18.20;99.90
4647;DHT22;2336;47.822;7.564;2022-10-31T15:02:00;18.10;99.90
4647;DHT22;2336;47.822;7.564;2022-10-31T15:04:29;18.00;99.90
4647;DHT22;2336;47.822;7.564;2022-10-31T15:07:02;18.00;99.90
4647;DHT22;2336;47.822;7.564;2022-10-31T15:09:34;18.00;99.90
4647;DHT22;2336;47.822;7.564;2022-10-31T15:12:22;17.90;99.90
4647;DHT22;2336;47.822;7.564;2022-10-31T15:14:49;17.90;99.90
4647;DHT22;2336;47.822;7.564;2022-10-31T15:17:17;17.80;99.90
4647;DHT22;2336;47.822;7.564;2022-10-31T15:19:44;17.70;99.90
4647;DHT22;2336;47.822;7.564;2022-10-31T15:22:16;17.70;99.90
4647;DHT22;2336;47.822;7.564;2022-10-31T15:24:43;17.70;99.90
4647;DHT22;2336;47.822;7.564;2022-10-31T15:27:14;17.60;99.90
4647;DHT22;2336;47.822;7.564;2022-10-31T15:29:48;17.60;99.90
4647;DHT22;2336;47.822;7.564;2022-10-31T15:32:20;17.60;99.90
4647;DHT22;2336;47.822;7.564;2022-10-31T15:34:49;17.50;99.90
4647;DHT22;2336;47.822;7.564;2022-10-31T15:37:17;17.40;99.90
4647;DHT22;2336;47.822;7.564;2022-10-31T15:39:45;17.40;99.90
4647;DHT22;2336;47.822;7.564;2022-10-31T15:42:23;17.30;99.90
4647;DHT22;2336;47.822;7.564;2022-10-31T15:44:54;17.20;99.90
4647;DHT22;2336;47.822;7.564;2022-10-31T15:47:23;17.10;99.90
4647;DHT22;2336;47.822;7.564;2022-10-31T15:49:52;17.00;99.90
4647;DHT22;2336;47.822;7.564;2022-10-31T15:52:25;16.90;99.90
4647;DHT22;2336;47.822;7.564;2022-10-31T15:54:59;16.80;99.90
4647;DHT22;2336;47.822;7.564;2022-10-31T15:57:28;16.70;99.90
4647;DHT22;2336;47.822;7.564;2022-10-31T15:59:56;16.60;99.90
4647;DHT22;2336;47.822;7.564;2022-10-31T16:02:24;16.50;99.90
4647;DHT22;2336;47.822;7.564;2022-10-31T16:04:54;16.40;99.90
4647;DHT22;2336;47.822;7.564;2022-10-31T16:07:21;16.30;99.90
4647;DHT22;2336;47.822;7.564;2022-10-31T16:09:50;16.20;99.90
4647;DHT22;2336;47.822;7.564;2022-10-31T16:12:17;16.10;99.90
4647;DHT22;2336;47.822;7.564;2022-10-31T16:14:46;16.00;99.90
4647;DHT22;2336;47.822;7.564;2022-10-31T16:17:14;16.00;99.90
4647;DHT22;2336;47.822;7.564;2022-10-31T16:19:49;15.90;99.90
4647;DHT22;2336;47.822;7.564;2022-10-31T16:22:21;15.90;99.90
4647;DHT22;2336;47.822;7.564;2022-10-31T16:24:52;15.90;99.90
4647;DHT22;2336;47.822;7.564;2022-10-31T16:27:21;15.80;99.90
4647;DHT22;2336;47.822;7.564;2022-10-31T16:29:52;15.70;99.90
4647;DHT22;2336;47.822;7.564;2022-10-31T16:32:28;15.70;99.90